sensor_id;sensor_type;location;lat;lon;timestamp;P1;durP1;ratioP1;P2;durP2;ratioP2
33104;SDS011;19476;51.448;6.674;2023-04-06T00:01:39;10.55;;;6.05;;
33104;SDS011;19476;51.448;6.674;2023-04-06T00:04:07;11.20;;;6.32;;
33104;SDS011;19476;51.448;6.674;2023-04-06T00:06:33;9.88;;;6.22;;
33104;SDS011;19476;51.448;6.674;2023-04-06T00:08:59;11.02;;;5.80;;
33104;SDS011;19476;51.448;6.674;2023-04-06T00:11:25;9.52;;;5.68;;
33104;SDS011;19476;51.448;6.674;2023-04-06T00:13:52;9.48;;;5.60;;
33104;SDS011;19476;51.448;6.674;2023-04-06T00:16:18;11.30;;;6.43;;
33104;SDS011;19476;51.448;6.674;2023-04-06T00:18:44;10.55;;;6.35;;
33104;SDS011;19476;51.448;6.674;2023-04-06T00:21:11;9.00;;;5.28;;
33104;SDS011;19476;51.448;6.674;2023-04-06T00:23:41;10.70;;;6.30;;
33104;SDS011;19476;51.448;6.674;2023-04-06T00:26:07;11.55;;;6.90;;
33104;SDS011;19476;51.448;6.674;2023-04-06T00:28:33;10.70;;;6.38;;
33104;SDS011;19476;51.448;6.674;2023-04-06T00:30:59;10.18;;;5.97;;
33104;SDS011;19476;51.448;6.674;2023-04-06T00:33:25;10.77;;;5.97;;
33104;SDS011;19476;51.448;6.674;2023-04-06T00:35:51;9.05;;;5.50;;
33104;SDS011;19476;51.448;6.674;2023-04-06T00:38:17;10.60;;;5.32;;
33104;SDS011;19476;51.448;6.674;2023-04-06T00:40:43;10.40;;;5.75;;
33104;SDS011;19476;51.448;6.674;2023-04-06T00:43:10;9.38;;;5.35;;
33104;SDS011;19476;51.448;6.674;2023-04-06T00:45:40;9.43;;;5.22;;
33104;SDS011;19476;51.448;6.674;2023-04-06T00:48:06;9.98;;;5.30;;
33104;SDS011;19476;51.448;6.674;2023-04-06T00:50:33;8.77;;;5.30;;
33104;SDS011;19476;51.448;6.674;2023-04-06T00:52:59;9.05;;;5.10;;
33104;SDS011;19476;51.448;6.674;2023-04-06T00:55:28;10.20;;;5.15;;
33104;SDS011;19476;51.448;6.674;2023-04-06T00:57:54;9.02;;;5.07;;
33104;SDS011;19476;51.448;6.674;2023-04-06T01:00:23;9.35;;;4.95;;
33104;SDS011;19476;51.448;6.674;2023-04-06T01:02:49;10.38;;;5.40;;
33104;SDS011;19476;51.448;6.674;2023-04-06T01:05:15;8.10;;;4.82;;
33104;SDS011;19476;51.448;6.674;2023-04-06T01:07:41;8.93;;;4.88;;
33104;SDS011;19476;51.448;6.674;2023-04-06T01:10:07;9.60;;;4.80;;
33104;SDS011;19476;51.448;6.674;2023-04-06T01:12:33;8.43;;;4.80;;
33104;SDS011;19476;51.448;6.674;2023-04-06T01:14:59;8.30;;;4.72;;
33104;SDS011;19476;51.448;6.674;2023-04-06T01:17:25;8.50;;;5.00;;
33104;SDS011;19476;51.448;6.674;2023-04-06T01:19:51;8.60;;;4.50;;
33104;SDS011;19476;51.448;6.674;2023-04-06T01:22:19;9.23;;;4.55;;
33104;SDS011;19476;51.448;6.674;2023-04-06T01:24:45;9.02;;;4.45;;
33104;SDS011;19476;51.448;6.674;2023-04-06T01:27:11;9.13;;;4.40;;
33104;SDS011;19476;51.448;6.674;2023-04-06T01:29:38;8.95;;;5.20;;
33104;SDS011;19476;51.448;6.674;2023-04-06T01:32:07;9.40;;;4.68;;
33104;SDS011;19476;51.448;6.674;2023-04-06T01:34:34;7.97;;;4.43;;
33104;SDS011;19476;51.448;6.674;2023-04-06T01:37:00;9.02;;;4.90;;
33104;SDS011;19476;51.448;6.674;2023-04-06T01:39:25;7.07;;;4.03;;
33104;SDS011;19476;51.448;6.674;2023-04-06T01:41:51;8.88;;;4.22;;
33104;SDS011;19476;51.448;6.674;2023-04-06T01:44:17;8.55;;;4.78;;
33104;SDS011;19476;51.448;6.674;2023-04-06T01:46:46;7.65;;;4.03;;
33104;SDS011;19476;51.448;6.674;2023-04-06T01:49:12;10.02;;;4.78;;
33104;SDS011;19476;51.448;6.674;2023-04-06T01:51:38;7.68;;;4.25;;
33104;SDS011;19476;51.448;6.674;2023-04-06T01:54:04;8.45;;;4.60;;
33104;SDS011;19476;51.448;6.674;2023-04-06T01:56:30;7.68;;;4.03;;
33104;SDS011;19476;51.448;6.674;2023-04-06T01:58:56;7.90;;;4.40;;
33104;SDS011;19476;51.448;6.674;2023-04-06T02:01:22;8.73;;;4.65;;
33104;SDS011;19476;51.448;6.674;2023-04-06T02:03:47;9.60;;;4.72;;
33104;SDS011;19476;51.448;6.674;2023-04-06T02:06:13;8.70;;;4.72;;
33104;SDS011;19476;51.448;6.674;2023-04-06T02:08:39;7.97;;;4.53;;
33104;SDS011;19476;51.448;6.674;2023-04-06T02:11:05;9.05;;;4.82;;
33104;SDS011;19476;51.448;6.674;2023-04-06T02:13:31;8.30;;;4.22;;
33104;SDS011;19476;51.448;6.674;2023-04-06T02:15:57;7.88;;;4.65;;
33104;SDS011;19476;51.448;6.674;2023-04-06T02:18:23;8.90;;;4.50;;
33104;SDS011;19476;51.448;6.674;2023-04-06T02:20:48;9.27;;;4.55;;
33104;SDS011;19476;51.448;6.674;2023-04-06T02:23:14;9.27;;;4.55;;
33104;SDS011;19476;51.448;6.674;2023-04-06T02:25:40;7.97;;;5.07;;
33104;SDS011;19476;51.448;6.674;2023-04-06T02:28:06;8.95;;;4.80;;
33104;SDS011;19476;51.448;6.674;2023-04-06T02:30:32;7.95;;;4.40;;
33104;SDS011;19476;51.448;6.674;2023-04-06T02:33:02;7.93;;;4.00;;
33104;SDS011;19476;51.448;6.674;2023-04-06T02:35:28;8.27;;;4.70;;
33104;SDS011;19476;51.448;6.674;2023-04-06T02:37:55;7.75;;;4.40;;
33104;SDS011;19476;51.448;6.674;2023-04-06T02:40:21;8.70;;;4.43;;
33104;SDS011;19476;51.448;6.674;2023-04-06T02:42:48;8.00;;;4.22;;
33104;SDS011;19476;51.448;6.674;2023-04-06T02:45:13;9.80;;;4.63;;
33104;SDS011;19476;51.448;6.674;2023-04-06T02:47:40;8.02;;;4.63;;
33104;SDS011;19476;51.448;6.674;2023-04-06T02:50:05;7.97;;;5.03;;
33104;SDS011;19476;51.448;6.674;2023-04-06T02:52:32;8.63;;;4.38;;
33104;SDS011;19476;51.448;6.674;2023-04-06T02:54:57;9.00;;;4.95;;
33104;SDS011;19476;51.448;6.674;2023-04-06T02:57:23;8.88;;;5.00;;
33104;SDS011;19476;51.448;6.674;2023-04-06T02:59:49;9.20;;;5.32;;
33104;SDS011;19476;51.448;6.674;2023-04-06T03:02:15;9.30;;;5.30;;
33104;SDS011;19476;51.448;6.674;2023-04-06T03:04:41;9.40;;;5.07;;
33104;SDS011;19476;51.448;6.674;2023-04-06T03:07:08;8.52;;;4.88;;
33104;SDS011;19476;51.448;6.674;2023-04-06T03:09:33;11.75;;;5.05;;
33104;SDS011;19476;51.448;6.674;2023-04-06T03:12:02;8.57;;;4.57;;
33104;SDS011;19476;51.448;6.674;2023-04-06T03:14:28;8.35;;;4.80;;
33104;SDS011;19476;51.448;6.674;2023-04-06T03:16:53;9.65;;;5.13;;
33104;SDS011;19476;51.448;6.674;2023-04-06T03:19:19;8.65;;;5.00;;
33104;SDS011;19476;51.448;6.674;2023-04-06T03:21:45;9.30;;;4.50;;
33104;SDS011;19476;51.448;6.674;2023-04-06T03:24:12;7.68;;;4.60;;
33104;SDS011;19476;51.448;6.674;2023-04-06T03:26:38;7.60;;;4.60;;
33104;SDS011;19476;51.448;6.674;2023-04-06T03:29:04;8.73;;;5.07;;
33104;SDS011;19476;51.448;6.674;2023-04-06T03:31:30;7.88;;;4.93;;
33104;SDS011;19476;51.448;6.674;2023-04-06T03:33:56;8.27;;;4.75;;
33104;SDS011;19476;51.448;6.674;2023-04-06T03:36:22;9.32;;;5.40;;
33104;SDS011;19476;51.448;6.674;2023-04-06T03:38:48;9.35;;;4.82;;
33104;SDS011;19476;51.448;6.674;2023-04-06T03:41:14;9.35;;;4.68;;
33104;SDS011;19476;51.448;6.674;2023-04-06T03:43:40;9.40;;;4.00;;
33104;SDS011;19476;51.448;6.674;2023-04-06T03:46:05;11.48;;;5.57;;
33104;SDS011;19476;51.448;6.674;2023-04-06T03:48:31;8.82;;;5.70;;
33104;SDS011;19476;51.448;6.674;2023-04-06T03:50:57;7.75;;;4.72;;
33104;SDS011;19476;51.448;6.674;2023-04-06T03:53:23;7.22;;;4.40;;
33104;SDS011;19476;51.448;6.674;2023-04-06T03:55:48;9.82;;;5.63;;
33104;SDS011;19476;51.448;6.674;2023-04-06T03:58:14;8.65;;;5.28;;
33104;SDS011;19476;51.448;6.674;2023-04-06T04:00:40;9.40;;;5.28;;
33104;SDS011;19476;51.448;6.674;2023-04-06T04:03:06;8.98;;;5.10;;
33104;SDS011;19476;51.448;6.674;2023-04-06T04:05:31;12.70;;;5.85;;
33104;SDS011;19476;51.448;6.674;2023-04-06T04:07:57;8.52;;;5.55;;
33104;SDS011;19476;51.448;6.674;2023-04-06T04:10:23;12.00;;;5.50;;
33104;SDS011;19476;51.448;6.674;2023-04-06T04:12:49;8.45;;;5.05;;
33104;SDS011;19476;51.448;6.674;2023-04-06T04:15:15;9.50;;;5.07;;
33104;SDS011;19476;51.448;6.674;2023-04-06T04:17:40;10.05;;;5.32;;
33104;SDS011;19476;51.448;6.674;2023-04-06T04:20:12;9.30;;;5.43;;
33104;SDS011;19476;51.448;6.674;2023-04-06T04:22:38;9.82;;;5.10;;
33104;SDS011;19476;51.448;6.674;2023-04-06T04:25:04;9.35;;;5.55;;
33104;SDS011;19476;51.448;6.674;2023-04-06T04:27:30;9.30;;;5.07;;
33104;SDS011;19476;51.448;6.674;2023-04-06T04:29:56;9.35;;;5.18;;
33104;SDS011;19476;51.448;6.674;2023-04-06T04:32:22;9.38;;;5.25;;
33104;SDS011;19476;51.448;6.674;2023-04-06T04:34:47;10.23;;;4.97;;
33104;SDS011;19476;51.448;6.674;2023-04-06T04:37:13;8.43;;;4.50;;
33104;SDS011;19476;51.448;6.674;2023-04-06T04:39:39;7.95;;;4.97;;
33104;SDS011;19476;51.448;6.674;2023-04-06T04:42:05;8.35;;;5.18;;
33104;SDS011;19476;51.448;6.674;2023-04-06T04:44:31;9.73;;;5.50;;
33104;SDS011;19476;51.448;6.674;2023-04-06T04:46:56;9.85;;;5.25;;
33104;SDS011;19476;51.448;6.674;2023-04-06T04:49:22;8.57;;;4.95;;
33104;SDS011;19476;51.448;6.674;2023-04-06T04:51:48;9.35;;;5.18;;
33104;SDS011;19476;51.448;6.674;2023-04-06T04:54:17;9.35;;;5.13;;
33104;SDS011;19476;51.448;6.674;2023-04-06T04:56:44;7.50;;;4.72;;
33104;SDS011;19476;51.448;6.674;2023-04-06T04:59:11;9.52;;;4.75;;
33104;SDS011;19476;51.448;6.674;2023-04-06T05:01:36;9.82;;;5.10;;
33104;SDS011;19476;51.448;6.674;2023-04-06T05:04:02;8.23;;;5.15;;
33104;SDS011;19476;51.448;6.674;2023-04-06T05:06:28;8.60;;;4.97;;
33104;SDS011;19476;51.448;6.674;2023-04-06T05:08:54;9.05;;;5.00;;
33104;SDS011;19476;51.448;6.674;2023-04-06T05:11:19;10.15;;;4.82;;
33104;SDS011;19476;51.448;6.674;2023-04-06T05:13:46;9.38;;;4.47;;
33104;SDS011;19476;51.448;6.674;2023-04-06T05:16:12;10.25;;;5.20;;
33104;SDS011;19476;51.448;6.674;2023-04-06T05:18:38;9.45;;;5.07;;
33104;SDS011;19476;51.448;6.674;2023-04-06T05:21:04;7.93;;;4.65;;
33104;SDS011;19476;51.448;6.674;2023-04-06T05:23:30;10.43;;;5.50;;
33104;SDS011;19476;51.448;6.674;2023-04-06T05:25:56;10.02;;;5.20;;
33104;SDS011;19476;51.448;6.674;2023-04-06T05:28:21;7.82;;;4.65;;
33104;SDS011;19476;51.448;6.674;2023-04-06T05:30:47;8.43;;;5.13;;
33104;SDS011;19476;51.448;6.674;2023-04-06T05:33:13;7.32;;;4.53;;
33104;SDS011;19476;51.448;6.674;2023-04-06T05:35:39;10.15;;;5.05;;
33104;SDS011;19476;51.448;6.674;2023-04-06T05:38:07;7.78;;;4.80;;
33104;SDS011;19476;51.448;6.674;2023-04-06T05:40:34;9.55;;;4.85;;
33104;SDS011;19476;51.448;6.674;2023-04-06T05:43:00;8.68;;;4.45;;
33104;SDS011;19476;51.448;6.674;2023-04-06T05:45:26;7.38;;;4.07;;
33104;SDS011;19476;51.448;6.674;2023-04-06T05:47:51;8.43;;;4.82;;
33104;SDS011;19476;51.448;6.674;2023-04-06T05:50:18;8.57;;;4.90;;
33104;SDS011;19476;51.448;6.674;2023-04-06T05:52:43;7.88;;;4.60;;
33104;SDS011;19476;51.448;6.674;2023-04-06T05:55:11;8.18;;;4.45;;
33104;SDS011;19476;51.448;6.674;2023-04-06T05:57:37;8.45;;;4.22;;
33104;SDS011;19476;51.448;6.674;2023-04-06T06:00:03;9.30;;;4.57;;
33104;SDS011;19476;51.448;6.674;2023-04-06T06:02:31;7.88;;;4.57;;
33104;SDS011;19476;51.448;6.674;2023-04-06T06:04:57;8.95;;;5.15;;
33104;SDS011;19476;51.448;6.674;2023-04-06T06:07:23;7.55;;;4.80;;
33104;SDS011;19476;51.448;6.674;2023-04-06T06:09:49;8.52;;;4.80;;
33104;SDS011;19476;51.448;6.674;2023-04-06T06:12:15;9.52;;;4.75;;
33104;SDS011;19476;51.448;6.674;2023-04-06T06:14:41;8.52;;;4.43;;
33104;SDS011;19476;51.448;6.674;2023-04-06T06:17:07;9.00;;;4.68;;
33104;SDS011;19476;51.448;6.674;2023-04-06T06:19:33;9.13;;;4.55;;
33104;SDS011;19476;51.448;6.674;2023-04-06T06:21:59;11.45;;;4.97;;
33104;SDS011;19476;51.448;6.674;2023-04-06T06:24:27;8.13;;;4.47;;
33104;SDS011;19476;51.448;6.674;2023-04-06T06:26:53;8.40;;;4.55;;
33104;SDS011;19476;51.448;6.674;2023-04-06T06:29:19;7.72;;;4.63;;
33104;SDS011;19476;51.448;6.674;2023-04-06T06:31:45;10.40;;;5.00;;
33104;SDS011;19476;51.448;6.674;2023-04-06T06:34:11;7.72;;;4.43;;
33104;SDS011;19476;51.448;6.674;2023-04-06T06:36:38;10.68;;;4.68;;
33104;SDS011;19476;51.448;6.674;2023-04-06T06:39:03;7.95;;;4.03;;
33104;SDS011;19476;51.448;6.674;2023-04-06T06:41:29;8.95;;;4.38;;
33104;SDS011;19476;51.448;6.674;2023-04-06T06:43:55;12.00;;;5.43;;
33104;SDS011;19476;51.448;6.674;2023-04-06T06:46:21;10.73;;;5.40;;
33104;SDS011;19476;51.448;6.674;2023-04-06T06:48:47;9.60;;;4.72;;
33104;SDS011;19476;51.448;6.674;2023-04-06T06:51:13;10.13;;;4.72;;
33104;SDS011;19476;51.448;6.674;2023-04-06T06:53:38;8.70;;;4.57;;
33104;SDS011;19476;51.448;6.674;2023-04-06T06:56:04;10.50;;;5.40;;
33104;SDS011;19476;51.448;6.674;2023-04-06T06:58:30;9.48;;;4.40;;
33104;SDS011;19476;51.448;6.674;2023-04-06T07:00:57;10.10;;;4.43;;
33104;SDS011;19476;51.448;6.674;2023-04-06T07:03:23;7.05;;;4.18;;
33104;SDS011;19476;51.448;6.674;2023-04-06T07:05:49;11.10;;;5.28;;
33104;SDS011;19476;51.448;6.674;2023-04-06T07:08:22;7.70;;;4.60;;
33104;SDS011;19476;51.448;6.674;2023-04-06T07:10:50;9.27;;;4.95;;
33104;SDS011;19476;51.448;6.674;2023-04-06T07:13:17;8.10;;;4.75;;
33104;SDS011;19476;51.448;6.674;2023-04-06T07:15:51;8.45;;;4.65;;
33104;SDS011;19476;51.448;6.674;2023-04-06T07:18:17;10.55;;;5.25;;
33104;SDS011;19476;51.448;6.674;2023-04-06T07:20:44;9.38;;;5.15;;
33104;SDS011;19476;51.448;6.674;2023-04-06T07:23:09;10.57;;;5.22;;
33104;SDS011;19476;51.448;6.674;2023-04-06T07:25:36;12.43;;;5.63;;
33104;SDS011;19476;51.448;6.674;2023-04-06T07:28:02;8.60;;;4.93;;
33104;SDS011;19476;51.448;6.674;2023-04-06T07:30:29;12.10;;;5.07;;
33104;SDS011;19476;51.448;6.674;2023-04-06T07:39:39;10.75;;;5.10;;
33104;SDS011;19476;51.448;6.674;2023-04-06T07:42:05;10.13;;;5.30;;
33104;SDS011;19476;51.448;6.674;2023-04-06T07:44:31;12.93;;;6.00;;
33104;SDS011;19476;51.448;6.674;2023-04-06T07:47:07;11.07;;;6.20;;
33104;SDS011;19476;51.448;6.674;2023-04-06T07:49:33;13.23;;;5.65;;
33104;SDS011;19476;51.448;6.674;2023-04-06T07:51:59;10.02;;;5.22;;
33104;SDS011;19476;51.448;6.674;2023-04-06T07:54:25;9.65;;;5.32;;
33104;SDS011;19476;51.448;6.674;2023-04-06T07:56:51;10.65;;;5.32;;
33104;SDS011;19476;51.448;6.674;2023-04-06T07:59:17;9.20;;;5.55;;
33104;SDS011;19476;51.448;6.674;2023-04-06T08:01:43;8.88;;;5.70;;
33104;SDS011;19476;51.448;6.674;2023-04-06T08:04:09;9.68;;;5.55;;
33104;SDS011;19476;51.448;6.674;2023-04-06T08:06:35;13.07;;;6.53;;
33104;SDS011;19476;51.448;6.674;2023-04-06T08:09:02;12.68;;;7.15;;
33104;SDS011;19476;51.448;6.674;2023-04-06T08:11:28;14.55;;;7.55;;
33104;SDS011;19476;51.448;6.674;2023-04-06T08:13:54;16.33;;;8.20;;
33104;SDS011;19476;51.448;6.674;2023-04-06T08:16:23;13.80;;;7.57;;
33104;SDS011;19476;51.448;6.674;2023-04-06T08:18:49;11.15;;;6.45;;
33104;SDS011;19476;51.448;6.674;2023-04-06T08:21:15;13.75;;;6.00;;
33104;SDS011;19476;51.448;6.674;2023-04-06T08:23:41;10.25;;;5.80;;
33104;SDS011;19476;51.448;6.674;2023-04-06T08:26:07;12.18;;;5.95;;
33104;SDS011;19476;51.448;6.674;2023-04-06T08:28:33;13.65;;;6.85;;
33104;SDS011;19476;51.448;6.674;2023-04-06T08:31:02;10.13;;;6.05;;
33104;SDS011;19476;51.448;6.674;2023-04-06T08:33:30;11.77;;;6.35;;
33104;SDS011;19476;51.448;6.674;2023-04-06T08:35:56;11.07;;;5.95;;
33104;SDS011;19476;51.448;6.674;2023-04-06T08:38:22;12.35;;;6.10;;
33104;SDS011;19476;51.448;6.674;2023-04-06T08:40:48;14.23;;;6.90;;
33104;SDS011;19476;51.448;6.674;2023-04-06T08:43:16;12.93;;;7.40;;
33104;SDS011;19476;51.448;6.674;2023-04-06T08:45:45;11.63;;;6.93;;
33104;SDS011;19476;51.448;6.674;2023-04-06T08:48:11;13.85;;;7.93;;
33104;SDS011;19476;51.448;6.674;2023-04-06T08:50:39;13.07;;;7.40;;
33104;SDS011;19476;51.448;6.674;2023-04-06T08:53:05;14.80;;;8.07;;
33104;SDS011;19476;51.448;6.674;2023-04-06T08:55:33;10.80;;;6.65;;
33104;SDS011;19476;51.448;6.674;2023-04-06T08:57:59;12.70;;;6.40;;
33104;SDS011;19476;51.448;6.674;2023-04-06T09:00:25;14.52;;;7.13;;
33104;SDS011;19476;51.448;6.674;2023-04-06T09:02:54;11.63;;;6.30;;
33104;SDS011;19476;51.448;6.674;2023-04-06T09:05:22;12.10;;;6.22;;
33104;SDS011;19476;51.448;6.674;2023-04-06T09:07:51;13.50;;;6.97;;
33104;SDS011;19476;51.448;6.674;2023-04-06T09:10:17;10.05;;;6.10;;
33104;SDS011;19476;51.448;6.674;2023-04-06T09:12:43;11.90;;;6.38;;
33104;SDS011;19476;51.448;6.674;2023-04-06T09:15:21;12.93;;;7.00;;
33104;SDS011;19476;51.448;6.674;2023-04-06T09:17:47;15.20;;;7.00;;
33104;SDS011;19476;51.448;6.674;2023-04-06T09:20:13;12.90;;;6.93;;
33104;SDS011;19476;51.448;6.674;2023-04-06T09:22:39;14.27;;;7.60;;
33104;SDS011;19476;51.448;6.674;2023-04-06T09:25:05;9.93;;;6.25;;
33104;SDS011;19476;51.448;6.674;2023-04-06T09:27:34;11.75;;;5.95;;
33104;SDS011;19476;51.448;6.674;2023-04-06T09:30:08;11.43;;;6.40;;
33104;SDS011;19476;51.448;6.674;2023-04-06T09:32:50;11.98;;;6.32;;
33104;SDS011;19476;51.448;6.674;2023-04-06T09:35:18;11.63;;;6.30;;
33104;SDS011;19476;51.448;6.674;2023-04-06T09:37:45;10.93;;;6.47;;
33104;SDS011;19476;51.448;6.674;2023-04-06T09:40:15;11.52;;;5.63;;
33104;SDS011;19476;51.448;6.674;2023-04-06T09:42:48;11.27;;;7.10;;
33104;SDS011;19476;51.448;6.674;2023-04-06T09:45:17;11.02;;;6.53;;
33104;SDS011;19476;51.448;6.674;2023-04-06T09:47:44;13.45;;;7.25;;
33104;SDS011;19476;51.448;6.674;2023-04-06T09:50:11;14.80;;;6.18;;
33104;SDS011;19476;51.448;6.674;2023-04-06T09:52:50;12.80;;;6.30;;
33104;SDS011;19476;51.448;6.674;2023-04-06T09:55:34;11.70;;;6.78;;
33104;SDS011;19476;51.448;6.674;2023-04-06T09:58:15;10.07;;;6.15;;
33104;SDS011;19476;51.448;6.674;2023-04-06T10:03:32;10.73;;;5.90;;
33104;SDS011;19476;51.448;6.674;2023-04-06T10:06:05;11.63;;;5.95;;
33104;SDS011;19476;51.448;6.674;2023-04-06T10:08:39;12.50;;;6.60;;
33104;SDS011;19476;51.448;6.674;2023-04-06T10:11:07;10.05;;;5.72;;
33104;SDS011;19476;51.448;6.674;2023-04-06T10:13:35;11.88;;;6.43;;
33104;SDS011;19476;51.448;6.674;2023-04-06T10:16:01;12.55;;;6.10;;
33104;SDS011;19476;51.448;6.674;2023-04-06T10:18:28;10.63;;;6.25;;
33104;SDS011;19476;51.448;6.674;2023-04-06T10:21:01;12.35;;;6.43;;
33104;SDS011;19476;51.448;6.674;2023-04-06T10:23:35;12.32;;;7.32;;
33104;SDS011;19476;51.448;6.674;2023-04-06T10:26:21;11.52;;;6.50;;
33104;SDS011;19476;51.448;6.674;2023-04-06T10:28:47;11.90;;;6.50;;
33104;SDS011;19476;51.448;6.674;2023-04-06T10:31:15;13.27;;;6.95;;
33104;SDS011;19476;51.448;6.674;2023-04-06T10:36:27;10.90;;;6.63;;
33104;SDS011;19476;51.448;6.674;2023-04-06T10:38:59;11.82;;;7.22;;
33104;SDS011;19476;51.448;6.674;2023-04-06T10:41:41;12.80;;;6.78;;
33104;SDS011;19476;51.448;6.674;2023-04-06T10:44:08;13.18;;;7.03;;
33104;SDS011;19476;51.448;6.674;2023-04-06T10:46:55;16.52;;;6.90;;
33104;SDS011;19476;51.448;6.674;2023-04-06T10:49:22;12.55;;;6.70;;
33104;SDS011;19476;51.448;6.674;2023-04-06T10:51:53;13.07;;;6.63;;
33104;SDS011;19476;51.448;6.674;2023-04-06T10:54:24;13.80;;;7.10;;
33104;SDS011;19476;51.448;6.674;2023-04-06T10:56:50;14.07;;;7.05;;
33104;SDS011;19476;51.448;6.674;2023-04-06T10:59:19;12.95;;;7.45;;
33104;SDS011;19476;51.448;6.674;2023-04-06T11:01:46;12.90;;;7.82;;
33104;SDS011;19476;51.448;6.674;2023-04-06T11:04:15;11.77;;;6.80;;
33104;SDS011;19476;51.448;6.674;2023-04-06T11:06:45;13.10;;;7.07;;
33104;SDS011;19476;51.448;6.674;2023-04-06T11:09:27;12.32;;;7.03;;
33104;SDS011;19476;51.448;6.674;2023-04-06T11:11:56;14.70;;;7.55;;
33104;SDS011;19476;51.448;6.674;2023-04-06T11:14:22;10.57;;;6.82;;
33104;SDS011;19476;51.448;6.674;2023-04-06T11:16:48;11.65;;;6.60;;
33104;SDS011;19476;51.448;6.674;2023-04-06T11:19:16;12.93;;;7.05;;
33104;SDS011;19476;51.448;6.674;2023-04-06T11:21:43;12.95;;;7.55;;
33104;SDS011;19476;51.448;6.674;2023-04-06T11:24:14;13.18;;;7.40;;
33104;SDS011;19476;51.448;6.674;2023-04-06T11:26:46;13.35;;;7.45;;
33104;SDS011;19476;51.448;6.674;2023-04-06T11:29:15;13.80;;;8.02;;
33104;SDS011;19476;51.448;6.674;2023-04-06T11:31:43;15.98;;;8.50;;
33104;SDS011;19476;51.448;6.674;2023-04-06T11:34:12;13.55;;;7.20;;
33104;SDS011;19476;51.448;6.674;2023-04-06T11:36:49;12.18;;;7.07;;
33104;SDS011;19476;51.448;6.674;2023-04-06T11:39:23;12.68;;;7.20;;
33104;SDS011;19476;51.448;6.674;2023-04-06T11:41:51;12.95;;;7.07;;
33104;SDS011;19476;51.448;6.674;2023-04-06T11:44:28;12.07;;;7.10;;
33104;SDS011;19476;51.448;6.674;2023-04-06T11:47:01;10.10;;;5.82;;
33104;SDS011;19476;51.448;6.674;2023-04-06T11:49:29;13.13;;;6.53;;
33104;SDS011;19476;51.448;6.674;2023-04-06T11:51:56;13.52;;;7.70;;
33104;SDS011;19476;51.448;6.674;2023-04-06T11:54:30;12.82;;;7.22;;
33104;SDS011;19476;51.448;6.674;2023-04-06T11:56:56;11.40;;;6.05;;
33104;SDS011;19476;51.448;6.674;2023-04-06T11:59:22;12.75;;;6.00;;
33104;SDS011;19476;51.448;6.674;2023-04-06T12:01:48;13.00;;;7.05;;
33104;SDS011;19476;51.448;6.674;2023-04-06T12:04:14;12.35;;;7.40;;
33104;SDS011;19476;51.448;6.674;2023-04-06T12:06:40;12.77;;;6.93;;
33104;SDS011;19476;51.448;6.674;2023-04-06T12:09:06;13.55;;;7.07;;
33104;SDS011;19476;51.448;6.674;2023-04-06T12:11:32;14.98;;;6.90;;
33104;SDS011;19476;51.448;6.674;2023-04-06T12:13:58;12.48;;;7.07;;
33104;SDS011;19476;51.448;6.674;2023-04-06T12:16:26;11.10;;;7.10;;
33104;SDS011;19476;51.448;6.674;2023-04-06T12:18:52;14.55;;;7.43;;
33104;SDS011;19476;51.448;6.674;2023-04-06T12:21:18;12.52;;;6.78;;
33104;SDS011;19476;51.448;6.674;2023-04-06T12:23:44;13.57;;;6.82;;
33104;SDS011;19476;51.448;6.674;2023-04-06T12:26:10;12.23;;;6.68;;
33104;SDS011;19476;51.448;6.674;2023-04-06T12:28:36;12.80;;;7.10;;
33104;SDS011;19476;51.448;6.674;2023-04-06T12:31:02;11.27;;;6.65;;
33104;SDS011;19476;51.448;6.674;2023-04-06T12:33:27;9.70;;;5.72;;
33104;SDS011;19476;51.448;6.674;2023-04-06T12:35:53;8.98;;;4.93;;
33104;SDS011;19476;51.448;6.674;2023-04-06T12:38:19;9.75;;;5.90;;
33104;SDS011;19476;51.448;6.674;2023-04-06T12:40:46;9.52;;;5.30;;
33104;SDS011;19476;51.448;6.674;2023-04-06T12:43:12;8.35;;;4.82;;
33104;SDS011;19476;51.448;6.674;2023-04-06T12:45:39;9.05;;;5.53;;
33104;SDS011;19476;51.448;6.674;2023-04-06T12:48:05;7.47;;;4.30;;
33104;SDS011;19476;51.448;6.674;2023-04-06T12:50:32;8.75;;;4.40;;
33104;SDS011;19476;51.448;6.674;2023-04-06T12:52:58;7.53;;;4.20;;
33104;SDS011;19476;51.448;6.674;2023-04-06T12:55:24;8.48;;;4.68;;
33104;SDS011;19476;51.448;6.674;2023-04-06T12:57:50;7.18;;;4.18;;
33104;SDS011;19476;51.448;6.674;2023-04-06T13:00:16;9.52;;;4.18;;
33104;SDS011;19476;51.448;6.674;2023-04-06T13:02:42;8.15;;;3.85;;
33104;SDS011;19476;51.448;6.674;2023-04-06T13:05:12;8.32;;;3.85;;
33104;SDS011;19476;51.448;6.674;2023-04-06T13:07:43;7.68;;;4.18;;
33104;SDS011;19476;51.448;6.674;2023-04-06T13:10:09;8.68;;;4.07;;
33104;SDS011;19476;51.448;6.674;2023-04-06T13:12:35;6.43;;;3.55;;
33104;SDS011;19476;51.448;6.674;2023-04-06T13:15:01;6.20;;;3.33;;
33104;SDS011;19476;51.448;6.674;2023-04-06T13:17:27;5.88;;;2.97;;
33104;SDS011;19476;51.448;6.674;2023-04-06T13:19:54;7.90;;;3.75;;
33104;SDS011;19476;51.448;6.674;2023-04-06T13:22:20;5.50;;;3.03;;
33104;SDS011;19476;51.448;6.674;2023-04-06T13:24:46;5.75;;;2.97;;
33104;SDS011;19476;51.448;6.674;2023-04-06T13:27:12;4.63;;;2.60;;
33104;SDS011;19476;51.448;6.674;2023-04-06T13:29:37;6.28;;;3.25;;
33104;SDS011;19476;51.448;6.674;2023-04-06T13:32:04;6.35;;;3.00;;
33104;SDS011;19476;51.448;6.674;2023-04-06T13:34:30;6.70;;;2.90;;
33104;SDS011;19476;51.448;6.674;2023-04-06T13:36:55;5.93;;;2.80;;
33104;SDS011;19476;51.448;6.674;2023-04-06T13:39:21;8.07;;;3.60;;
33104;SDS011;19476;51.448;6.674;2023-04-06T13:41:47;6.22;;;3.20;;
33104;SDS011;19476;51.448;6.674;2023-04-06T13:44:13;6.90;;;3.38;;
33104;SDS011;19476;51.448;6.674;2023-04-06T13:46:39;7.72;;;3.42;;
33104;SDS011;19476;51.448;6.674;2023-04-06T13:49:05;5.68;;;3.10;;
33104;SDS011;19476;51.448;6.674;2023-04-06T13:51:31;7.95;;;3.70;;
33104;SDS011;19476;51.448;6.674;2023-04-06T13:53:57;6.32;;;3.40;;
33104;SDS011;19476;51.448;6.674;2023-04-06T13:56:22;5.68;;;3.42;;
33104;SDS011;19476;51.448;6.674;2023-04-06T13:58:48;6.72;;;3.38;;
33104;SDS011;19476;51.448;6.674;2023-04-06T14:01:14;5.57;;;3.30;;
33104;SDS011;19476;51.448;6.674;2023-04-06T14:03:40;6.13;;;3.30;;
33104;SDS011;19476;51.448;6.674;2023-04-06T14:06:12;5.45;;;2.92;;
33104;SDS011;19476;51.448;6.674;2023-04-06T14:08:38;5.25;;;2.80;;
33104;SDS011;19476;51.448;6.674;2023-04-06T14:11:06;5.65;;;2.55;;
33104;SDS011;19476;51.448;6.674;2023-04-06T14:13:36;5.68;;;2.92;;
33104;SDS011;19476;51.448;6.674;2023-04-06T14:16:03;6.38;;;3.08;;
33104;SDS011;19476;51.448;6.674;2023-04-06T14:18:29;7.18;;;3.28;;
33104;SDS011;19476;51.448;6.674;2023-04-06T14:20:56;7.30;;;3.72;;
33104;SDS011;19476;51.448;6.674;2023-04-06T14:23:23;6.22;;;3.35;;
33104;SDS011;19476;51.448;6.674;2023-04-06T14:25:51;6.35;;;3.42;;
33104;SDS011;19476;51.448;6.674;2023-04-06T14:28:26;6.95;;;3.80;;
33104;SDS011;19476;51.448;6.674;2023-04-06T14:30:56;7.57;;;4.43;;
33104;SDS011;19476;51.448;6.674;2023-04-06T14:33:23;7.55;;;3.90;;
33104;SDS011;19476;51.448;6.674;2023-04-06T14:35:48;9.98;;;4.22;;
33104;SDS011;19476;51.448;6.674;2023-04-06T14:38:14;7.53;;;3.80;;
33104;SDS011;19476;51.448;6.674;2023-04-06T14:40:40;7.53;;;4.00;;
33104;SDS011;19476;51.448;6.674;2023-04-06T14:43:06;6.85;;;4.30;;
33104;SDS011;19476;51.448;6.674;2023-04-06T14:45:33;8.35;;;4.03;;
33104;SDS011;19476;51.448;6.674;2023-04-06T14:48:04;6.65;;;4.03;;
33104;SDS011;19476;51.448;6.674;2023-04-06T14:50:32;7.38;;;4.30;;
33104;SDS011;19476;51.448;6.674;2023-04-06T14:52:58;6.85;;;3.83;;
33104;SDS011;19476;51.448;6.674;2023-04-06T14:55:25;6.47;;;3.55;;